Home > Products > Valid Products > TAF

000
FTUS42 KRAH 301425 AAA
TAFGSO
TAF AMD
KGSO 301425Z 3014/3112 05010KT P6SM SCT009 BKN025
      TEMPO 3014/3017 BKN009
     FM301700 05009KT P6SM SCT015 BKN025
     FM302000 03009KT P6SM VCSH BKN035
     FM302300 VRB03KT P6SM SCT060 SCT100 BKN150=



000
FTUS42 KRAH 301425 AAA
TAFINT
TAF AMD
KINT 301425Z 3014/3112 04009KT P6SM SCT009 BKN040
      TEMPO 3014/3017 BKN012
     FM301700 05009KT P6SM SCT015 BKN025
     FM302000 03009KT P6SM VCSH BKN035
     FM302300 VRB03KT P6SM SCT060 SCT100 BKN150=



000
FTUS42 KRAH 301301 AAA
TAFRWI
TAF AMD
KRWI 301301Z 3013/3112 VRB03KT P6SM SCT007 SCT025 BKN080
     FM301500 02005KT P6SM VCSH BKN025 OVC050
     FM301800 03005KT 6SM -SHRA BR BKN025 BKN080
     FM310100 VRB04KT 5SM BR BKN015 OVC035=



000
FTUS42 KRAH 301213 AAA
TAFRDU
TAF AMD
KRDU 301213Z 3012/3112 03003KT 4SM BR VCSH OVC003
      TEMPO 3012/3014 1/2SM FG BKN002
     FM301400 02005KT P6SM VCSH SCT008 OVC012
     FM301700 03005KT 6SM -SHRA BR BKN025 BKN080
     FM310100 VRB04KT 5SM BR BKN015 OVC035=



000
FTUS42 KRAH 301120
TAFINT
TAF
KINT 301120Z 3012/3112 02006KT P6SM OVC012
     FM301400 02005KT P6SM SCT015 BKN025
     FM301800 03005KT P6SM VCSH BKN035
     FM310100 VRB03KT P6SM SCT060 SCT100 BKN150=



000
FTUS42 KRAH 301120
TAFRDU
TAF
KRDU 301120Z 3012/3112 03003KT 4SM BR VCSH OVC003
     FM301400 02005KT P6SM VCSH SCT008 OVC012
     FM301700 03005KT 6SM -SHRA BR BKN025 BKN080
     FM310100 VRB04KT 5SM BR BKN015 OVC035=



000
FTUS42 KRAH 301120
TAFGSO
TAF
KGSO 301120Z 3012/3112 04006KT P6SM OVC009
      TEMPO 3012/3014 5SM BR SCT009 OVC025
     FM301400 02005KT P6SM SCT015 BKN025
     FM301800 03005KT P6SM VCSH BKN035
     FM310100 VRB03KT P6SM SCT060 SCT100 BKN150=



000
FTUS42 KRAH 301120
TAFFAY
TAF
KFAY 301120Z 3012/3112 02006KT 3/4SM BR OVC002
      TEMPO 3012/3014 2SM BR OVC005
     FM301400 02005KT P6SM VCSH BKN008 OVC012
     FM301700 03005KT 6SM -SHRA BR BKN025 BKN080
     FM310100 VRB04KT 5SM BR BKN015 OVC035=



000
FTUS42 KRAH 301046 AAD
TAFRWI
TAF AMD
KRWI 301046Z 3011/3106 00000KT 5SM BR FEW004 SCT024 BKN029
      TEMPO 3011/3013 3SM BR BKN004 OVC035
     FM301300 02005KT P6SM VCSH BKN012 OVC050
     FM301700 03005KT 6SM -SHRA BR BKN025 BKN080
     FM310100 VRB04KT 5SM BR BKN015 OVC035=



000
FTUS42 KRAH 301018 AAB
TAFGSO
TAF AMD
KGSO 301018Z 3010/3106 03007KT P6SM SCT008 BKN025
      TEMPO 3010/3013 5SM BR BKN008 OVC025
     FM301300 02005KT P6SM SCT015 BKN025
     FM301800 03005KT P6SM VCSH BKN035
     FM310100 VRB03KT P6SM SCT060 SCT100 BKN150=



000
FTUS42 KRAH 300638 AAA
TAFRDU
TAF AMD
KRDU 300638Z 3007/3106 04004KT P6SM VCSH BKN005 OVC020
      TEMPO 3008/3012 4SM BR
     FM301300 02005KT P6SM VCSH SCT008 OVC012
     FM301700 03005KT 6SM -SHRA BR BKN025 BKN080
     FM310100 VRB04KT 5SM BR BKN015 OVC035=



000
FTUS42 KRAH 300637 AAA
TAFGSO
TAF AMD
KGSO 300637Z 3007/3106 02007KT P6SM SCT015 BKN025
      TEMPO 3008/3012 5SM BR BKN015 OVC025
     FM301300 02005KT P6SM SCT015 BKN025
     FM301800 03005KT P6SM VCSH BKN035
     FM310100 VRB03KT P6SM SCT060 SCT100 BKN150=



000
FTUS42 KRAH 300636 AAA
TAFINT
TAF AMD
KINT 300636Z 3007/3106 02007KT P6SM SCT015 BKN025
      TEMPO 3008/3012 5SM BR BKN015 OVC025
     FM301300 02005KT P6SM SCT015 BKN025
     FM301800 03005KT P6SM VCSH BKN035
     FM310100 VRB03KT P6SM SCT060 SCT100 BKN150=



000
FTUS42 KRAH 300324 AAC
TAFFAY
TAF AMD
KFAY 300324Z 3003/3024 02004KT P6SM VCSH BKN003 BKN009 OVC050
      TEMPO 3003/3006 SCT008 OVC050
     FM300600 05004KT 5SM BR BKN025
     FM301500 05007KT P6SM OVC050 PROB30 3018/3024 4SM TSRA
      BKN025CB=



000
FTUS42 KRAH 291738
TAFINT
TAF
KINT 291738Z 2918/3018 02005KT P6SM VCSH SCT025 BKN035
      TEMPO 2918/2922 5SM -SHRA BR BKN015 OVC025
     FM292200 02007KT P6SM VCSH SCT015 BKN035
      TEMPO 2922/3002 5SM -SHRA BR BKN015 OVC025=



000
FTUS42 KRAH 291738
TAFRDU
TAF
KRDU 291738Z 2918/3018 02005KT P6SM VCSH BKN007 OVC015
      TEMPO 2918/2922 5SM -SHRA OVC005
     FM292200 02007KT P6SM VCSH SCT015 BKN035
      TEMPO 2922/3002 5SM -SHRA BR BKN015 OVC025=



000
FTUS42 KRAH 291738
TAFFAY
TAF
KFAY 291738Z 2918/3018 03008KT P6SM VCSH SCT015 BKN035
      TEMPO 2918/2922 VRB06KT 2SM SHRA OVC012
     FM292200 03008KT P6SM VCSH BKN012 OVC025
      TEMPO 2922/3002 VRB06KT 2SM SHRA OVC005=



000
FTUS42 KRAH 291738
TAFGSO
TAF
KGSO 291738Z 2918/3018 02005KT P6SM VCSH SCT025 BKN035
      TEMPO 2918/2922 5SM -SHRA BR BKN015 OVC025
     FM292200 02007KT P6SM VCSH SCT015 BKN035
      TEMPO 2922/3002 5SM -SHRA BR BKN015 OVC025=



000
FTUS42 KRAH 291738
TAFRWI
TAF
KRWI 291738Z 2918/3018 09008KT P6SM VCSH SCT009 BKN035
      TEMPO 2918/2922 VRB06KT 2SM SHRA BKN007
     FM292200 09008KT P6SM VCSH BKN012 OVC025
      TEMPO 2922/3002 VRB06KT 2SM SHRA OVC010=



000
FTUS42 KRAH 291558 AAA
TAFGSO
TAF AMD
KGSO 291558Z 2916/3012 36005KT P6SM VCSH SCT025 BKN035
      TEMPO 2916/2920 5SM -SHRA BR SCT010 BKN025
     FM292000 01007KT P6SM VCSH SCT015 BKN035
      TEMPO 2920/2924 5SM -SHRA BR BKN015 OVC025=



000
FTUS42 KRAH 291418 AAA
TAFFAY
TAF AMD
KFAY 291418Z 2914/3012 03006KT 3SM -SHRA BR OVC005
      TEMPO 2914/2918 VRB06KT 2SM -SHRA OVC003
     FM291800 VRB05KT 3SM -SHRA BR OVC003=



000
FTUS42 KRAH 291416 AAA
TAFINT
TAF AMD
KINT 291416Z 2914/3012 01008KT P6SM VCSH SCT050 BKN100
      TEMPO 2914/2918 3SM -SHRA BKN005 OVC015
     FM291800 VRB05KT 3SM -SHRA BR BKN005 OVC015
     FM300000 VRB03KT 3SM -SHRA BR OVC005=



000
FTUS42 KRAH 291340 AAA
TAFRWI
TAF AMD
KRWI 291340Z 2914/3012 04005KT 3SM -SHRA BR BKN005 OVC015
      TEMPO 2914/2917 5SM -SHRA OVC004
     FM300300 01006KT 6SM BR VCSH BKN015 OVC080=



000
FTUS42 KRAH 282335
TAFRWI
TAF
KRWI 282335Z 2900/2924 VRB03KT P6SM SCT060 SCT100 BKN250
     FM290600 VRB03KT P6SM OVC050
     FM290900 01005KT P6SM VCSH SCT025 BKN035 PROB30 2909/2913 4SM
      -SHRA OVC010
     FM291300 06004KT 4SM BR VCSH OVC025
     FM291700 08006KT 4SM -SHRA BR OVC025
      TEMPO 2918/2922 6SM -TSRA BKN015CB=



000
FTUS42 KRAH 282335
TAFGSO
TAF
KGSO 282335Z 2900/2924 VRB03KT P6SM SCT060 SCT100 BKN250
     FM290600 VRB03KT P6SM OVC050
     FM291000 01005KT P6SM VCSH SCT015 BKN035 PROB30 2912/2915 4SM
      -RA OVC015
     FM291500 01007KT 6SM BR VCSH OVC015
      TEMPO 2918/2922 3SM SHRA BKN015=



000
FTUS42 KRAH 282335
TAFFAY
TAF
KFAY 282335Z 2900/2924 10004KT P6SM VCSH SCT035 BKN100
     FM290600 03004KT P6SM SHRA OVC025
     FM290900 04005KT 4SM -SHRA BR OVC015
     FM291700 08006KT 4SM -SHRA BR OVC025
      TEMPO 2918/2922 6SM -TSRA BKN015CB=



000
FTUS42 KRAH 282335
TAFRDU
TAF
KRDU 282335Z 2900/2924 VRB03KT P6SM SCT060 SCT100 BKN250
     FM290600 VRB03KT P6SM OVC050
     FM290900 01005KT P6SM VCSH SCT015 BKN035 PROB30 2909/2913 4SM
      -RA OVC010
     FM291300 06004KT 4SM BR VCSH OVC015
     FM291700 08006KT 4SM -SHRA BR OVC015
      TEMPO 2918/2922 6SM -TSRA BKN015CB=



000
FTUS42 KRAH 282335
TAFINT
TAF
KINT 282335Z 2900/2924 VRB03KT P6SM SCT060 SCT100 BKN250
     FM290600 VRB03KT P6SM OVC050
     FM291000 01005KT P6SM VCSH SCT015 BKN035 PROB30 2912/2915 4SM
      -RA OVC015
     FM291500 01007KT 6SM BR VCSH OVC015
      TEMPO 2918/2922 3SM SHRA BKN015=



000
FTUS42 KRAH 281736
TAFFAY
TAF
KFAY 281736Z 2818/2918 12005KT P6SM SKC
     FM282100 09005KT P6SM VCSH SCT035 BKN100
     FM290600 VRB04KT 3SM SHRA BKN010 OVC035=



000
FTUS42 KRAH 281736
TAFRDU
TAF
KRDU 281736Z 2818/2918 12005KT P6SM SCT250
     FM290800 03007KT P6SM VCSH SCT015 OVC035=



000
FTUS42 KRAH 281736
TAFRWI
TAF
KRWI 281736Z 2818/2918 12005KT P6SM SKC
     FM290000 15005KT P6SM SCT035 BKN100
     FM290800 VRB04KT 3SM SHRA BKN010 OVC035=



000
FTUS42 KRAH 281145 CCB
TAFGSO
TAF COR
KGSO 281145Z 2812/2912 12005KT P6SM SCT060
     FM291000 36007KT P6SM VCSH SCT015 OVC035=



000
FTUS42 KRAH 281145 CCA
TAFINT
TAF COR
KINT 281145Z 2812/2912 12005KT P6SM SCT060
     FM291000 36007KT P6SM VCSH SCT015 OVC035=



000
FTUS42 KRAH 281144 CCA
TAFGSO
TAF COR
KGSO 281144Z 2812/2912 35005KT P6SM SCT060
     FM291000 36007KT P6SM VCSH SCT015 OVC035=



000
FTUS42 KRAH 281142 CCA
TAFRDU
TAF COR
KRDU 281142Z 2812/2912 12005KT P6SM SCT250
     FM290800 03007KT P6SM VCSH SCT015 OVC035=



000
FTUS42 KRAH 281120
TAFINT
TAF
KINT 281120Z 2812/2912 00000KT P6SM BKN060
     FM281500 12007KT P6SM SCT040 BKN150
     FM290500 VRB04KT P6SM OVC060
     FM290900 VRB04KT 5SM -SHRA BKN008 OVC020=



000
FTUS42 KRAH 280520
TAFFAY
TAF
KFAY 280520Z 2806/2906 00000KT P6SM SKC
     FM281400 12007KT P6SM SCT040 BKN200
     FM281800 12006KT P6SM BKN040 OVC120
     FM282100 VRB04KT P6SM VCSH SCT030 OVC070
     FM282300 VRB04KT 4SM -RA BR BKN020 OVC060=



000
FTUS42 KRAH 280520
TAFINT
TAF
KINT 280520Z 2806/2906 20004KT P6SM SCT050 SCT080 BKN200
     FM281500 12007KT P6SM SCT040 BKN150
     FM290200 13005KT P6SM OVC060=



    US Dept of Commerce
    National Oceanic and Atmospheric Administration
    National Weather Service
    1325 East West Highway
    Silver Spring, MD 20910
    Page Author: NWS Internet Services Team
Disclaimer
Information Quality
Credits
Glossary
Privacy Policy
Freedom of Information Act (FOIA)
About Us
Career Opportunities